createdAt,value
2016-06-29T00:00:00.967Z,20.77
2016-06-29T00:01:00.951Z,20.82
2016-06-29T00:02:00.098Z,20.72
2016-06-29T00:03:00.059Z,20.72
2016-06-29T00:04:00.061Z,20.85
2016-06-29T00:04:59.412Z,20.74
2016-06-29T00:06:00.042Z,20.77
2016-06-29T00:07:00.647Z,20.72
2016-06-29T00:08:00.003Z,20.65
2016-06-29T00:09:00.624Z,20.58
2016-06-29T00:09:59.954Z,20.66
2016-06-29T00:11:00.584Z,20.7
2016-06-29T00:12:00.565Z,20.55
2016-06-29T00:13:00.560Z,20.51
2016-06-29T00:14:00.542Z,20.67
2016-06-29T00:14:59.943Z,20.65
2016-06-29T00:16:00.520Z,20.9
2016-06-29T00:17:00.493Z,20.78
2016-06-29T00:18:00.483Z,20.56
2016-06-29T00:18:59.827Z,20.65
2016-06-29T00:20:00.477Z,20.75
2016-06-29T00:21:00.435Z,20.66
2016-06-29T00:22:00.421Z,20.82
2016-06-29T00:23:00.404Z,20.75
2016-06-29T00:23:59.779Z,20.63
2016-06-29T00:24:59.737Z,20.59
2016-06-29T00:26:00.384Z,20.65
2016-06-29T00:26:59.706Z,20.67
2016-06-29T00:27:59.730Z,20.72
2016-06-29T00:29:00.332Z,20.59
2016-06-29T00:30:00.318Z,20.7
2016-06-29T00:31:00.298Z,20.48
2016-06-29T00:32:00.290Z,20.48
2016-06-29T00:32:59.699Z,20.59
2016-06-29T00:34:00.273Z,20.55
2016-06-29T00:35:00.238Z,20.58
2016-06-29T00:36:00.237Z,20.7
2016-06-29T00:36:59.589Z,20.72
2016-06-29T00:37:59.575Z,20.82
2016-06-29T00:38:59.552Z,20.81
2016-06-29T00:39:58.894Z,20.84
2016-06-29T00:41:00.394Z,20.66
2016-06-29T00:41:59.506Z,20.8
2016-06-29T00:43:00.143Z,20.56
2016-06-29T00:43:58.832Z,20.55
2016-06-29T00:45:00.090Z,20.47
2016-06-29T00:46:00.103Z,20.41
2016-06-29T00:46:59.426Z,20.56
2016-06-29T00:48:00.049Z,20.82
2016-06-29T00:49:00.038Z,20.74
2016-06-29T00:50:00.033Z,20.77
2016-06-29T00:50:58.731Z,20.78
2016-06-29T00:51:58.722Z,20.85
2016-06-29T00:52:58.717Z,20.69
2016-06-29T00:53:59.325Z,20.78
2016-06-29T00:54:59.318Z,20.66
2016-06-29T00:55:59.313Z,20.69
2016-06-29T00:56:59.924Z,20.74
2016-06-29T00:57:59.284Z,20.7
2016-06-29T00:58:59.896Z,20.7
2016-06-29T00:59:59.245Z,20.66
2016-06-29T01:00:59.880Z,20.63
2016-06-29T01:01:59.864Z,20.55
2016-06-29T01:02:59.210Z,20.72
2016-06-29T01:03:58.558Z,20.67
2016-06-29T01:04:59.175Z,20.6
2016-06-29T01:05:59.803Z,20.59
2016-06-29T01:06:59.788Z,20.66
2016-06-29T01:07:59.780Z,20.82
2016-06-29T01:08:59.124Z,20.78
2016-06-29T01:09:59.740Z,20.65
2016-06-29T01:10:58.467Z,20.5
2016-06-29T01:11:59.737Z,20.41
2016-06-29T01:12:59.073Z,20.52
2016-06-29T01:13:59.691Z,20.6
2016-06-29T01:14:59.039Z,20.67
2016-06-29T01:15:59.638Z,20.66
2016-06-29T01:16:59.004Z,20.55
2016-06-29T01:17:59.632Z,20.65
2016-06-29T01:18:58.969Z,20.56
2016-06-29T01:19:58.954Z,20.59
2016-06-29T01:20:59.587Z,20.55
2016-06-29T01:21:59.599Z,20.7
2016-06-29T01:22:59.542Z,20.7
2016-06-29T01:23:59.570Z,20.7
2016-06-29T01:24:59.526Z,20.7
2016-06-29T01:25:58.863Z,20.65
2016-06-29T01:26:58.868Z,20.55
2016-06-29T01:27:59.478Z,20.47
2016-06-29T01:28:58.843Z,20.56
2016-06-29T01:29:59.447Z,20.55
2016-06-29T01:30:59.440Z,20.5
2016-06-29T01:31:59.433Z,20.43
2016-06-29T01:32:58.135Z,20.44
2016-06-29T01:33:59.394Z,20.44
2016-06-29T01:34:58.727Z,20.44
2016-06-29T01:35:58.791Z,20.6
2016-06-29T01:36:58.777Z,20.36
2016-06-29T01:37:59.348Z,20.56
2016-06-29T01:38:58.687Z,20.63
2016-06-29T01:39:59.320Z,20.52
2016-06-29T01:40:58.650Z,20.41
2016-06-29T01:41:59.282Z,20.39
2016-06-29T01:42:58.639Z,20.41
2016-06-29T01:43:58.606Z,20.51
2016-06-29T01:44:58.599Z,20.48
2016-06-29T01:45:57.968Z,20.43
2016-06-29T01:46:58.573Z,20.5
2016-06-29T01:47:59.177Z,20.39
2016-06-29T01:48:59.181Z,20.21
2016-06-29T01:49:58.555Z,20.36
2016-06-29T01:50:59.147Z,20.41
2016-06-29T01:51:58.501Z,20.43
2016-06-29T01:52:59.120Z,20.47
2016-06-29T01:53:59.112Z,20.39
2016-06-29T01:54:58.442Z,20.56
2016-06-29T01:55:57.807Z,20.51
2016-06-29T01:56:58.427Z,20.51
2016-06-29T01:57:58.412Z,20.52
2016-06-29T01:58:58.400Z,20.47
2016-06-29T01:59:59.014Z,20.4
2016-06-29T02:00:59.002Z,20.48
2016-06-29T02:01:58.346Z,20.59
2016-06-29T02:02:58.961Z,20.58
2016-06-29T02:03:58.322Z,20.63
2016-06-29T02:04:58.316Z,20.39
2016-06-29T02:05:58.291Z,20.4
2016-06-29T02:06:58.922Z,20.44
2016-06-29T02:07:58.272Z,20.37
2016-06-29T02:08:58.893Z,20.34
2016-06-29T02:09:57.587Z,20.47
2016-06-29T02:10:58.868Z,20.29
2016-06-29T02:11:58.844Z,20.48
2016-06-29T02:12:58.833Z,20.58
2016-06-29T02:13:58.804Z,20.44
2016-06-29T02:14:58.155Z,20.29
2016-06-29T02:15:58.149Z,20.55
2016-06-29T02:16:58.763Z,20.51
2016-06-29T02:17:58.122Z,20.47
2016-06-29T02:18:58.115Z,20.5
2016-06-29T02:19:58.742Z,20.56
2016-06-29T02:20:58.714Z,20.48
2016-06-29T02:21:58.724Z,20.51
2016-06-29T02:22:58.678Z,20.43
2016-06-29T02:23:58.670Z,20.37
2016-06-29T02:24:57.374Z,20.37
2016-06-29T02:25:58.643Z,20.43
2016-06-29T02:26:58.625Z,20.5
2016-06-29T02:27:58.628Z,20.43
2016-06-29T02:28:57.945Z,20.36
2016-06-29T02:29:58.581Z,20.32
2016-06-29T02:30:57.926Z,20.13
2016-06-29T02:31:58.584Z,20.34
2016-06-29T02:32:58.539Z,20.36
2016-06-29T02:33:58.522Z,20.43
2016-06-29T02:34:57.873Z,20.37
2016-06-29T02:35:58.502Z,20.44
2016-06-29T02:36:58.503Z,20.36
2016-06-29T02:37:57.832Z,20.37
2016-06-29T02:38:58.447Z,20.25
2016-06-29T02:39:57.805Z,20.39
2016-06-29T02:40:57.788Z,20.43
2016-06-29T02:41:57.767Z,20.5
2016-06-29T02:42:57.760Z,20.4
2016-06-29T02:43:58.410Z,20.5
2016-06-29T02:44:57.736Z,20.4
2016-06-29T02:45:57.084Z,20.39
2016-06-29T02:46:57.695Z,20.56
2016-06-29T02:47:58.471Z,20.52
2016-06-29T02:48:57.687Z,20.5
2016-06-29T02:49:58.323Z,20.6
2016-06-29T02:50:58.281Z,20.39
2016-06-29T02:51:58.271Z,20.34
2016-06-29T02:52:58.242Z,20.44
2016-06-29T02:53:58.237Z,20.52
2016-06-29T02:54:57.589Z,20.41
2016-06-29T02:55:58.219Z,20.21
2016-06-29T02:56:58.190Z,20.44
2016-06-29T02:57:57.541Z,20.37
2016-06-29T02:58:58.159Z,20.41
2016-06-29T02:59:58.162Z,20.37
2016-06-29T03:00:57.514Z,20.32
2016-06-29T03:01:58.119Z,20.4
2016-06-29T03:02:56.842Z,20.22
2016-06-29T03:03:58.091Z,20.22
2016-06-29T03:04:58.073Z,20.32
2016-06-29T03:05:58.064Z,20.24
2016-06-29T03:06:58.051Z,20.29
2016-06-29T03:07:57.417Z,20.18
2016-06-29T03:08:58.030Z,20.25
2016-06-29T03:09:58.013Z,20.41
2016-06-29T03:10:57.993Z,20.37
2016-06-29T03:11:57.980Z,20.43
2016-06-29T03:12:57.967Z,20.43
2016-06-29T03:13:57.319Z,20.41
2016-06-29T03:14:57.937Z,20.51
2016-06-29T03:15:57.925Z,20.43
2016-06-29T03:16:57.907Z,20.39
2016-06-29T03:17:57.903Z,20.59
2016-06-29T03:18:57.245Z,20.48
2016-06-29T03:19:57.873Z,20.43
2016-06-29T03:20:57.205Z,20.47
2016-06-29T03:21:57.852Z,20.62
2016-06-29T03:22:57.187Z,20.48
2016-06-29T03:23:57.807Z,20.24
2016-06-29T03:24:57.150Z,20.34
2016-06-29T03:25:57.763Z,20.36
2016-06-29T03:26:57.766Z,20.14
2016-06-29T03:27:57.146Z,20.25
2016-06-29T03:28:57.739Z,20.32
2016-06-29T03:29:57.093Z,20.37
2016-06-29T03:30:57.055Z,20.22
2016-06-29T03:31:57.683Z,20.22
2016-06-29T03:32:57.668Z,20.43
2016-06-29T03:33:57.655Z,20.37
2016-06-29T03:34:57.651Z,20.25
2016-06-29T03:35:57.664Z,20.39
2016-06-29T03:36:56.361Z,20.31
2016-06-29T03:37:57.616Z,20.25
2016-06-29T03:38:56.943Z,20.1
2016-06-29T03:39:57.576Z,20.29
2016-06-29T03:40:57.549Z,20.26
2016-06-29T03:41:57.545Z,20.29
2016-06-29T03:42:57.524Z,20.25
2016-06-29T03:43:56.254Z,20.09
2016-06-29T03:44:56.231Z,20.14
2016-06-29T03:45:56.849Z,20.04
2016-06-29T03:46:57.515Z,20.13
2016-06-29T03:47:57.464Z,20.41
2016-06-29T03:48:56.818Z,20.25
2016-06-29T03:49:56.786Z,20.21
2016-06-29T03:50:56.783Z,20.13
2016-06-29T03:51:56.756Z,20.32
2016-06-29T03:52:57.387Z,20.36
2016-06-29T03:53:57.402Z,20.44
2016-06-29T03:54:57.355Z,20.41
2016-06-29T03:55:57.345Z,20.32
2016-06-29T03:56:57.320Z,20.1
2016-06-29T03:57:56.679Z,20.24
2016-06-29T03:58:56.659Z,20.34
2016-06-29T03:59:56.640Z,20.25
2016-06-29T04:00:57.274Z,20.09
2016-06-29T04:01:56.826Z,20.13
2016-06-29T04:02:57.268Z,20.09
2016-06-29T04:03:57.214Z,20.07
2016-06-29T04:04:56.595Z,20.06
2016-06-29T04:05:57.208Z,20.11
2016-06-29T04:06:57.182Z,20.14
2016-06-29T04:07:56.548Z,20.04
2016-06-29T04:08:57.138Z,20.14
2016-06-29T04:09:57.147Z,20.24
2016-06-29T04:10:57.127Z,20.09
2016-06-29T04:11:57.131Z,20.16
2016-06-29T04:12:57.106Z,20.1
2016-06-29T04:13:55.797Z,20.24
2016-06-29T04:14:56.439Z,20.04
2016-06-29T04:15:57.062Z,20.06
2016-06-29T04:16:57.045Z,20.09
2016-06-29T04:17:56.379Z,20.13
2016-06-29T04:18:56.999Z,20.11
2016-06-29T04:19:56.359Z,20.04
2016-06-29T04:20:56.336Z,19.99
2016-06-29T04:21:56.989Z,19.86
2016-06-29T04:22:56.954Z,19.89
2016-06-29T04:23:56.930Z,20
2016-06-29T04:24:56.300Z,19.91
2016-06-29T04:25:56.897Z,19.86
2016-06-29T04:26:55.621Z,20.02
2016-06-29T04:27:55.604Z,20.13
2016-06-29T04:28:56.889Z,20.11
2016-06-29T04:29:56.213Z,19.96
2016-06-29T04:30:56.178Z,20.1
2016-06-29T04:31:56.803Z,20
2016-06-29T04:32:56.801Z,20
2016-06-29T04:33:56.135Z,20.03
2016-06-29T04:34:56.786Z,20.06
2016-06-29T04:35:56.773Z,20.02
2016-06-29T04:36:56.114Z,19.96
2016-06-29T04:37:56.730Z,19.88
2016-06-29T04:38:56.726Z,19.94
2016-06-29T04:39:56.068Z,19.86
2016-06-29T04:40:56.678Z,19.91
2016-06-29T04:41:56.659Z,19.73
2016-06-29T04:42:56.643Z,19.82
2016-06-29T04:43:56.638Z,19.88
2016-06-29T04:44:56.012Z,19.89
2016-06-29T04:45:56.604Z,19.95
2016-06-29T04:46:55.960Z,19.94
2016-06-29T04:47:55.939Z,19.92
2016-06-29T04:48:56.564Z,20
2016-06-29T04:49:55.281Z,19.89
2016-06-29T04:50:55.890Z,19.81
2016-06-29T04:51:55.888Z,19.76
2016-06-29T04:52:55.894Z,19.86
2016-06-29T04:53:56.489Z,19.88
2016-06-29T04:54:55.841Z,19.74
2016-06-29T04:55:56.462Z,19.89
2016-06-29T04:56:55.835Z,20.02
2016-06-29T04:57:56.422Z,19.89
2016-06-29T04:58:56.418Z,19.99
2016-06-29T04:59:55.778Z,19.99
2016-06-29T05:00:56.419Z,19.94
2016-06-29T05:01:56.375Z,20
2016-06-29T05:02:55.718Z,19.99
2016-06-29T05:03:56.363Z,19.99
2016-06-29T05:04:55.064Z,19.94
2016-06-29T05:05:56.313Z,19.79
2016-06-29T05:06:55.673Z,19.89
2016-06-29T05:07:56.293Z,19.91
2016-06-29T05:08:56.278Z,19.81
2016-06-29T05:09:55.627Z,19.77
2016-06-29T05:10:56.246Z,19.79
2016-06-29T05:11:56.233Z,19.76
2016-06-29T05:12:54.940Z,19.77
2016-06-29T05:13:54.919Z,19.77
2016-06-29T05:14:56.177Z,19.69
2016-06-29T05:15:55.529Z,19.88
2016-06-29T05:16:55.521Z,19.99
2016-06-29T05:17:54.861Z,19.85
2016-06-29T05:18:55.491Z,19.76
2016-06-29T05:19:56.119Z,19.85
2016-06-29T05:20:56.102Z,19.92
2016-06-29T05:21:55.446Z,19.84
2016-06-29T05:22:56.091Z,19.66
2016-06-29T05:23:56.057Z,19.71
2016-06-29T05:24:55.409Z,19.92
2016-06-29T05:25:56.037Z,19.86
2016-06-29T05:26:55.374Z,19.69
2016-06-29T05:27:56.005Z,19.84
2016-06-29T05:28:56.014Z,19.88
2016-06-29T05:29:55.969Z,19.85
2016-06-29T05:30:55.981Z,19.94
2016-06-29T05:31:55.927Z,19.95
2016-06-29T05:32:55.951Z,19.81
2016-06-29T05:33:55.281Z,19.82
2016-06-29T05:34:55.910Z,19.84
2016-06-29T05:35:55.875Z,19.89
2016-06-29T05:36:54.594Z,19.85
2016-06-29T05:37:55.207Z,19.82
2016-06-29T05:38:55.196Z,19.89
2016-06-29T05:39:55.199Z,20.07
2016-06-29T05:40:54.587Z,19.85
2016-06-29T05:41:55.781Z,20.03
2016-06-29T05:42:55.772Z,20
2016-06-29T05:43:55.756Z,20.02
2016-06-29T05:44:55.114Z,20.03
2016-06-29T05:45:55.091Z,19.73
2016-06-29T05:46:55.726Z,19.91
2016-06-29T05:47:55.055Z,19.91
2016-06-29T05:48:55.691Z,19.92
2016-06-29T05:49:55.025Z,19.99
2016-06-29T05:50:55.651Z,20
2016-06-29T05:51:55.009Z,20.11
2016-06-29T05:52:54.358Z,19.86
2016-06-29T05:53:54.958Z,19.89
2016-06-29T05:54:54.329Z,19.86
2016-06-29T05:55:55.577Z,19.92
2016-06-29T05:56:55.564Z,19.89
2016-06-29T05:57:55.562Z,19.91
2016-06-29T05:58:54.899Z,19.94
2016-06-29T05:59:54.899Z,20.07
2016-06-29T06:00:55.543Z,19.96
2016-06-29T06:01:55.498Z,19.88
2016-06-29T06:02:55.493Z,19.91
2016-06-29T06:03:55.462Z,19.99
2016-06-29T06:04:55.467Z,19.96
2016-06-29T06:05:54.147Z,20.04
2016-06-29T06:06:54.776Z,19.94
2016-06-29T06:07:54.763Z,19.96
2016-06-29T06:08:54.763Z,20.09
2016-06-29T06:09:54.110Z,20.11
2016-06-29T06:10:54.730Z,20.06
2016-06-29T06:11:54.713Z,20.06
2016-06-29T06:12:55.326Z,19.99
2016-06-29T06:13:55.329Z,20
2016-06-29T06:14:54.023Z,20
2016-06-29T06:15:55.297Z,20.09
2016-06-29T06:16:55.304Z,20
2016-06-29T06:17:55.264Z,20.03
2016-06-29T06:18:53.972Z,20.03
2016-06-29T06:19:53.958Z,20.1
2016-06-29T06:20:54.578Z,20.19
2016-06-29T06:21:55.210Z,20.16
2016-06-29T06:22:54.544Z,20.1
2016-06-29T06:23:55.233Z,20.09
2016-06-29T06:24:55.158Z,20.16
2016-06-29T06:25:55.154Z,20.26
2016-06-29T06:26:55.128Z,20.11
2016-06-29T06:27:55.117Z,20.13
2016-06-29T06:28:54.453Z,20.16
2016-06-29T06:29:55.071Z,20.02
2016-06-29T06:30:55.083Z,20.13
2016-06-29T06:31:54.419Z,20.21
2016-06-29T06:32:55.042Z,20.09
2016-06-29T06:33:54.395Z,20.07
2016-06-29T06:34:54.373Z,20.28
2016-06-29T06:35:54.379Z,20.39
2016-06-29T06:36:55.030Z,20.28
2016-06-29T06:37:54.971Z,20.25
2016-06-29T06:38:54.958Z,20.25
2016-06-29T06:39:54.296Z,20.16
2016-06-29T06:40:54.295Z,20.25
2016-06-29T06:41:53.637Z,20.13
2016-06-29T06:42:54.898Z,20.34
2016-06-29T06:43:54.884Z,20.48
2016-06-29T06:44:54.240Z,20.59
2016-06-29T06:45:54.218Z,20.4
2016-06-29T06:46:54.451Z,20.4
2016-06-29T06:47:54.827Z,20.41
2016-06-29T06:48:54.820Z,20.5
2016-06-29T06:49:54.798Z,20.65
2016-06-29T06:50:54.798Z,20.7
2016-06-29T06:51:54.761Z,20.85
2016-06-29T06:52:54.114Z,20.69
2016-06-29T06:53:54.099Z,20.75
2016-06-29T06:54:54.727Z,20.67
2016-06-29T06:55:54.078Z,20.65
2016-06-29T06:56:54.712Z,20.72
2016-06-29T06:57:54.041Z,20.85
2016-06-29T06:58:54.670Z,20.66
2016-06-29T06:59:54.657Z,20.78
2016-06-29T07:00:54.647Z,20.82
2016-06-29T07:01:53.990Z,20.82
2016-06-29T07:02:54.743Z,20.69
2016-06-29T07:03:53.958Z,20.82
2016-06-29T07:04:54.586Z,20.67
2016-06-29T07:05:53.919Z,20.65
2016-06-29T07:06:54.540Z,20.65
2016-06-29T07:07:54.598Z,20.7
2016-06-29T07:08:53.886Z,20.58
2016-06-29T07:09:53.234Z,20.69
2016-06-29T07:10:54.514Z,20.81
2016-06-29T07:11:54.486Z,20.82
2016-06-29T07:12:54.458Z,20.96
2016-06-29T07:13:54.446Z,20.85
2016-06-29T07:14:54.434Z,20.88
2016-06-29T07:15:54.430Z,20.78
2016-06-29T07:16:54.437Z,20.65
2016-06-29T07:17:53.751Z,20.65
2016-06-29T07:18:53.115Z,20.72
2016-06-29T07:19:53.749Z,20.7
2016-06-29T07:20:54.345Z,20.81
2016-06-29T07:21:53.709Z,20.88
2016-06-29T07:22:54.312Z,20.84
2016-06-29T07:23:54.296Z,20.85
2016-06-29T07:24:54.289Z,20.82
2016-06-29T07:25:53.634Z,20.7
2016-06-29T07:26:53.626Z,20.72
2016-06-29T07:27:53.619Z,20.65
2016-06-29T07:28:54.220Z,20.67
2016-06-29T07:29:54.214Z,20.85
2016-06-29T07:30:53.583Z,20.78
2016-06-29T07:31:54.195Z,20.74
2016-06-29T07:32:54.176Z,20.88
2016-06-29T07:33:53.517Z,21.06
2016-06-29T07:34:53.506Z,20.99
2016-06-29T07:35:54.125Z,21.07
2016-06-29T07:36:53.487Z,21.17
2016-06-29T07:37:52.830Z,21.2
2016-06-29T07:38:54.092Z,21.12
2016-06-29T07:39:54.069Z,21.2
2016-06-29T07:40:53.428Z,21.25
2016-06-29T07:41:53.416Z,21.29
2016-06-29T07:42:53.447Z,21.35
2016-06-29T07:43:53.393Z,21.33
2016-06-29T07:44:53.986Z,21.27
2016-06-29T07:45:53.997Z,21.54
2016-06-29T07:46:53.980Z,21.51
2016-06-29T07:47:53.975Z,21.52
2016-06-29T07:48:53.313Z,21.57
2016-06-29T07:49:53.936Z,21.51
2016-06-29T07:50:53.925Z,21.48
2016-06-29T07:51:53.271Z,21.42
2016-06-29T07:52:53.887Z,21.57
2016-06-29T07:53:53.879Z,21.46
2016-06-29T07:54:53.860Z,21.5
2016-06-29T07:55:52.578Z,21.55
2016-06-29T07:56:52.563Z,21.42
2016-06-29T07:57:53.814Z,21.52
2016-06-29T07:58:53.806Z,21.67
2016-06-29T07:59:53.797Z,21.67
2016-06-29T08:00:53.796Z,21.73
2016-06-29T08:01:53.757Z,21.64
2016-06-29T08:02:53.113Z,21.75
2016-06-29T08:03:53.739Z,21.72
2016-06-29T08:04:52.458Z,21.82
2016-06-29T08:05:53.058Z,21.93
2016-06-29T08:06:53.069Z,21.95
2016-06-29T08:07:53.034Z,21.95
2016-06-29T08:08:53.068Z,21.89
2016-06-29T08:09:53.010Z,21.98
2016-06-29T08:10:53.631Z,22.06
2016-06-29T08:11:53.626Z,22.14
2016-06-29T08:12:53.597Z,22.1
2016-06-29T08:13:52.944Z,22.23
2016-06-29T08:14:52.938Z,22.14
2016-06-29T08:15:53.563Z,22.23
2016-06-29T08:16:53.554Z,21.98
2016-06-29T08:17:52.938Z,22.15
2016-06-29T08:18:53.531Z,22.26
2016-06-29T08:19:53.537Z,22.17
2016-06-29T08:20:52.870Z,22.1
2016-06-29T08:21:53.494Z,22.06
2016-06-29T08:22:52.843Z,21.98
2016-06-29T08:23:53.507Z,22.08
2016-06-29T08:24:52.815Z,22.06
2016-06-29T08:25:53.441Z,21.96
2016-06-29T08:26:53.419Z,22.07
2016-06-29T08:27:52.774Z,22.08
2016-06-29T08:28:52.754Z,22.14
2016-06-29T08:29:52.739Z,22.07
2016-06-29T08:30:53.379Z,22.15
2016-06-29T08:31:53.337Z,22.29
2016-06-29T08:32:53.352Z,22.22
2016-06-29T08:33:52.723Z,22.29
2016-06-29T08:34:53.305Z,22.28
2016-06-29T08:35:53.288Z,22.32
2016-06-29T08:36:52.651Z,22.33
2016-06-29T08:37:53.280Z,22.36
2016-06-29T08:38:53.256Z,22.35
2016-06-29T08:39:53.277Z,22.22
2016-06-29T08:40:52.581Z,22.26
2016-06-29T08:41:52.568Z,22.36
2016-06-29T08:42:53.204Z,22.43
2016-06-29T08:43:53.167Z,22.53
2016-06-29T08:44:52.521Z,22.47
2016-06-29T08:45:53.146Z,22.44
2016-06-29T08:46:51.855Z,22.53
2016-06-29T08:47:51.858Z,22.51
2016-06-29T08:48:53.154Z,22.57
2016-06-29T08:49:52.460Z,22.48
2016-06-29T08:50:52.449Z,22.44
2016-06-29T08:51:53.079Z,22.5
2016-06-29T08:52:53.050Z,22.65
2016-06-29T08:53:52.402Z,22.69
2016-06-29T08:54:53.030Z,22.63
2016-06-29T08:55:53.027Z,22.81
2016-06-29T08:56:53.006Z,22.88
2016-06-29T08:57:52.990Z,22.81
2016-06-29T08:58:52.972Z,22.76
2016-06-29T08:59:52.956Z,22.81
2016-06-29T09:00:52.965Z,22.53
2016-06-29T09:01:52.927Z,22.69
2016-06-29T09:02:52.923Z,22.75
2016-06-29T09:03:52.252Z,22.83
2016-06-29T09:04:52.254Z,22.75
2016-06-29T09:05:52.227Z,22.81
2016-06-29T09:06:52.871Z,22.69
2016-06-29T09:07:52.846Z,22.81
2016-06-29T09:08:52.844Z,22.83
2016-06-29T09:09:52.831Z,22.62
2016-06-29T09:10:52.811Z,22.59
2016-06-29T09:11:52.787Z,22.63
2016-06-29T09:12:51.509Z,22.81
2016-06-29T09:13:52.135Z,22.9
2016-06-29T09:14:52.142Z,22.98
2016-06-29T09:15:52.116Z,23.02
2016-06-29T09:16:52.104Z,22.94
2016-06-29T09:17:52.705Z,23.08
2016-06-29T09:18:52.074Z,23.09
2016-06-29T09:19:52.042Z,23.12
2016-06-29T09:20:52.684Z,23.06
2016-06-29T09:21:52.026Z,23.02
2016-06-29T09:22:52.651Z,23.1
2016-06-29T09:23:51.992Z,23.08
2016-06-29T09:24:52.630Z,23.21
2016-06-29T09:25:51.978Z,23.21
2016-06-29T09:26:52.607Z,23.08
2016-06-29T09:27:51.968Z,22.94
2016-06-29T09:28:52.587Z,22.9
2016-06-29T09:29:52.559Z,23.09
2016-06-29T09:30:52.553Z,23.17
2016-06-29T09:31:51.893Z,22.94
2016-06-29T09:32:52.507Z,23.1
2016-06-29T09:33:51.867Z,23.17
2016-06-29T09:34:52.496Z,23.12
2016-06-29T09:35:52.487Z,23.12
2016-06-29T09:36:52.461Z,23.27
2016-06-29T09:37:52.462Z,23.27
2016-06-29T09:38:52.479Z,23.39
2016-06-29T09:39:52.480Z,23.36
2016-06-29T09:40:51.782Z,23.44
2016-06-29T09:41:52.396Z,23.25
2016-06-29T09:42:52.394Z,23.39
2016-06-29T09:43:51.735Z,23.28
2016-06-29T09:44:52.389Z,23.24
2016-06-29T09:45:52.342Z,23.18
2016-06-29T09:46:51.682Z,23.4
2016-06-29T09:47:52.322Z,23.36
2016-06-29T09:48:51.034Z,23.36
2016-06-29T09:49:51.723Z,23.47
2016-06-29T09:50:51.648Z,23.63
2016-06-29T09:51:51.630Z,23.63
2016-06-29T09:52:52.265Z,23.62
2016-06-29T09:53:51.590Z,23.58
2016-06-29T09:54:52.245Z,23.54
2016-06-29T09:55:51.557Z,23.43
2016-06-29T09:56:52.208Z,23.69
2016-06-29T09:57:51.541Z,23.71
2016-06-29T09:58:52.174Z,23.71
2016-06-29T09:59:51.541Z,23.61
2016-06-29T10:00:52.153Z,23.91
2016-06-29T10:01:52.169Z,23.96
2016-06-29T10:02:52.255Z,24.02
2016-06-29T10:03:52.102Z,24.2
2016-06-29T10:04:51.482Z,24.32
2016-06-29T10:05:52.079Z,24.43
2016-06-29T10:06:52.079Z,24.4
2016-06-29T10:07:51.404Z,24.36
2016-06-29T10:08:52.047Z,24.32
2016-06-29T10:09:52.033Z,24.35
2016-06-29T10:10:51.366Z,24.4
2016-06-29T10:11:51.383Z,24.39
2016-06-29T10:12:51.383Z,24.26
2016-06-29T10:13:52.005Z,24.39
2016-06-29T10:14:51.327Z,24.6
2016-06-29T10:15:51.327Z,24.54
2016-06-29T10:16:50.706Z,24.63
2016-06-29T10:17:51.943Z,24.6
2016-06-29T10:18:51.914Z,24.61
2016-06-29T10:19:51.281Z,24.74
2016-06-29T10:20:51.918Z,24.76
2016-06-29T10:21:51.894Z,24.78
2016-06-29T10:22:51.861Z,24.86
2016-06-29T10:23:51.208Z,25.08
2016-06-29T10:24:51.829Z,25.26
2016-06-29T10:25:51.842Z,25.44
2016-06-29T10:26:51.805Z,25.46
2016-06-29T10:27:51.822Z,25.46
2016-06-29T10:28:51.782Z,25.53
2016-06-29T10:29:51.810Z,25.55
2016-06-29T10:30:51.134Z,25.55
2016-06-29T10:31:51.749Z,25.87
2016-06-29T10:32:51.744Z,25.81
2016-06-29T10:33:50.438Z,25.91
2016-06-29T10:34:51.081Z,26.06
2016-06-29T10:35:51.712Z,26.18
2016-06-29T10:36:51.679Z,26.09
2016-06-29T10:37:51.682Z,25.98
2016-06-29T10:38:51.662Z,25.88
2016-06-29T10:39:51.031Z,25.96
2016-06-29T10:40:51.655Z,25.98
2016-06-29T10:41:51.622Z,26.09
2016-06-29T10:42:51.615Z,26.23
2016-06-29T10:43:51.605Z,26.36
2016-06-29T10:44:51.588Z,26.59
2016-06-29T10:45:50.952Z,26.68
2016-06-29T10:46:51.558Z,26.52
2016-06-29T10:47:51.578Z,26.6
2016-06-29T10:48:51.550Z,26.66
2016-06-29T10:49:51.531Z,26.78
2016-06-29T10:50:51.520Z,26.16
2016-06-29T10:51:51.554Z,26.34
2016-06-29T10:52:51.505Z,26.53
2016-06-29T10:53:50.841Z,26.83
2016-06-29T10:54:50.830Z,26.93
2016-06-29T10:55:51.495Z,26.81
2016-06-29T10:56:50.157Z,26.47
2016-06-29T10:57:50.177Z,26.84
2016-06-29T10:58:51.413Z,27.03
2016-06-29T10:59:51.413Z,26.88
2016-06-29T11:00:50.774Z,26.71
2016-06-29T11:01:50.763Z,26.68
2016-06-29T11:02:51.404Z,26.85
2016-06-29T11:03:51.375Z,27
2016-06-29T11:04:50.740Z,27.17
2016-06-29T11:05:51.375Z,27.33
2016-06-29T11:06:51.347Z,27.3
2016-06-29T11:07:51.365Z,27.33
2016-06-29T11:08:51.319Z,27.37
2016-06-29T11:09:51.308Z,26.99
2016-06-29T11:10:51.296Z,27.08
2016-06-29T11:11:50.663Z,27.14
2016-06-29T11:12:50.654Z,27.22
2016-06-29T11:13:50.618Z,27.4
2016-06-29T11:14:51.250Z,27.82
2016-06-29T11:15:50.635Z,28.07
2016-06-29T11:16:51.219Z,27.9
2016-06-29T11:17:51.219Z,27.98
2016-06-29T11:18:49.933Z,28.29
2016-06-29T11:19:50.573Z,28.25
2016-06-29T11:20:51.175Z,28.49
2016-06-29T11:21:51.189Z,28.64
2016-06-29T11:22:51.155Z,28.6
2016-06-29T11:23:51.163Z,28.37
2016-06-29T11:24:51.153Z,28.17
2016-06-29T11:25:51.178Z,27.65
2016-06-29T11:26:51.121Z,27.78
2016-06-29T11:27:51.101Z,28
2016-06-29T11:28:51.092Z,27.86
2016-06-29T11:29:51.108Z,27.9
2016-06-29T11:30:51.068Z,27.95
2016-06-29T11:31:51.058Z,27.95
2016-06-29T11:32:51.059Z,28.33
2016-06-29T11:33:51.048Z,28.37
2016-06-29T11:34:51.035Z,28.59
2016-06-29T11:35:51.025Z,27.93
2016-06-29T11:36:51.019Z,28.3
2016-06-29T11:37:51.009Z,27.98
2016-06-29T11:38:50.986Z,27.9
2016-06-29T11:39:50.347Z,28
2016-06-29T11:40:50.329Z,28.45
2016-06-29T11:41:51.020Z,28.45
2016-06-29T11:42:50.963Z,28.78
2016-06-29T11:43:50.959Z,28.66
2016-06-29T11:44:50.957Z,28.75
2016-06-29T11:45:50.951Z,28.93
2016-06-29T11:46:50.936Z,29.16
2016-06-29T11:47:50.291Z,28.96
2016-06-29T11:48:50.295Z,29.02
2016-06-29T11:49:50.293Z,29.31
2016-06-29T11:50:50.950Z,29.24
2016-06-29T11:51:50.295Z,29.26
2016-06-29T11:52:50.321Z,29.71
2016-06-29T11:53:49.623Z,29.69
2016-06-29T11:54:50.262Z,29.79
2016-06-29T11:55:50.470Z,30.02
2016-06-29T11:56:50.314Z,30.03
2016-06-29T11:57:50.902Z,30.3
2016-06-29T11:58:50.912Z,30.06
2016-06-29T11:59:50.882Z,29.97
2016-06-29T12:00:50.247Z,29.82
2016-06-29T12:01:50.878Z,29.66
2016-06-29T12:02:50.879Z,30.32
2016-06-29T12:03:50.880Z,30.19
2016-06-29T12:04:50.221Z,29.98
2016-06-29T12:05:50.883Z,29.94
2016-06-29T12:06:50.862Z,30.32
2016-06-29T12:07:51.042Z,30.59
2016-06-29T12:08:49.582Z,30.44
2016-06-29T12:09:50.857Z,30.3
2016-06-29T12:10:50.214Z,30.25
2016-06-29T12:11:50.215Z,30.47
2016-06-29T12:12:50.206Z,30.9
2016-06-29T12:13:50.857Z,31.07
2016-06-29T12:14:50.869Z,30.96
2016-06-29T12:15:50.216Z,31.34
2016-06-29T12:16:50.841Z,30.73
2016-06-29T12:17:50.845Z,30.83
2016-06-29T12:18:50.898Z,30.02
2016-06-29T12:19:50.843Z,30.8
2016-06-29T12:20:50.846Z,31.2
2016-06-29T12:21:50.829Z,31.7
2016-06-29T12:22:50.841Z,31.71
2016-06-29T12:23:50.854Z,31.69
2016-06-29T12:24:50.843Z,31.07
2016-06-29T12:25:50.871Z,31.21
2016-06-29T12:26:50.827Z,31.31
2016-06-29T12:27:50.835Z,31.42
2016-06-29T12:28:50.192Z,31.03
2016-06-29T12:29:50.187Z,31.24
2016-06-29T12:30:51.154Z,31.1
2016-06-29T12:31:50.181Z,30.88
2016-06-29T12:32:50.862Z,30.94
2016-06-29T12:33:50.177Z,31.09
2016-06-29T12:34:50.491Z,31.46
2016-06-29T12:35:50.173Z,30.85
2016-06-29T12:36:50.175Z,30.77
2016-06-29T12:37:50.201Z,31.07
2016-06-29T12:38:50.809Z,31.31
2016-06-29T12:39:50.328Z,30.09
2016-06-29T12:40:50.811Z,30.72
2016-06-29T12:41:50.539Z,30.94
2016-06-29T12:42:50.803Z,31.33
2016-06-29T12:43:49.582Z,31.73
2016-06-29T12:44:50.787Z,31.59
2016-06-29T12:45:51.411Z,31.9
2016-06-29T12:46:51.812Z,32.01
2016-06-29T12:47:51.994Z,31.87
2016-06-29T12:48:51.410Z,31.55
2016-06-29T12:49:50.791Z,31.85
2016-06-29T12:50:50.175Z,31.42
2016-06-29T12:51:50.163Z,30.9
2016-06-29T12:52:50.167Z,30.15
2016-06-29T12:53:50.916Z,30.63
2016-06-29T12:54:50.805Z,31.02
2016-06-29T12:55:50.809Z,30.65